Terminal Aerodrome Forecast
Issued by NWS Sterling, VA

Home | Current Version | Previous Version | Text Only | Print | Product List | Glossary On
Versions: 1 2 3 4 5 6 7 8 9 10 11 12 13
000
FTUS41 KLWX 022300
TAFCHO
TAF
KCHO 022325Z 0300/0324 25006KT P6SM VCTS BKN050CB BKN200
     FM030200 VRB03KT P6SM SCT050 BKN200
     FM030600 VRB03KT 5SM BR SCT050 BKN200
     FM030900 00000KT 2SM BR SCT050 BKN200
     FM031200 VRB03KT P6SM FEW050 SCT200
     FM031600 07005KT P6SM SCT050=

USA.gov is the U.S. government's official web portal to all federal, state and local government web resources and services.